Time;durP1;ratioP1;P1;durP2;ratioP2;P2;SDS_P1;SDS_P2;PMS_P1;PMS_P2;Temp;Humidity;BMP_temperature;BMP_pressure;BME280_temperature;BME280_humidity;BME280_pressure;Samples;Min_cycle;Max_cycle;Signal;HPM_P1;HPM_P2
2023/03/26 00:02:14;;;;;;;;;1.00;1.00;;;;;12.61;52.91;100331.00;5016715;28;45311;-64
2023/03/26 00:04:41;;;;;;;;;4.00;2.00;;;;;12.62;53.03;100327.44;5014851;28;45478;-64
2023/03/26 00:07:08;;;;;;;;;2.00;2.00;;;;;12.63;52.98;100331.81;5015116;28;47455;-64
2023/03/26 00:09:34;;;;;;;;;4.00;2.00;;;;;12.62;52.97;100318.69;5016003;28;45342;-64
2023/03/26 00:11:59;;;;;;;;;0.25;0.00;;;;;12.62;52.89;100311.63;5016473;28;45320;-64
2023/03/26 00:14:25;;;;;;;;;2.00;2.00;;;;;12.61;53.04;100303.78;5016108;28;45426;-65
2023/03/26 00:16:52;;;;;;;;;1.25;1.25;;;;;12.60;53.11;100307.31;5016377;28;45357;-64
2023/03/26 00:19:17;;;;;;;;;5.00;1.25;;;;;12.56;53.19;100292.50;5015751;28;45482;-64
2023/03/26 00:21:43;;;;;;;;;4.75;3.00;;;;;12.56;53.12;100293.34;5016276;28;45324;-64
2023/03/26 00:24:13;;;;;;;;;4.00;1.00;;;;;12.51;53.17;100285.59;5014476;28;45178;-65
2023/03/26 00:26:39;;;;;;;;;2.00;0.50;;;;;12.49;53.19;100274.25;5030873;28;46410;-64
2023/03/26 00:29:07;;;;;;;;;2.00;1.00;;;;;12.45;53.35;100261.19;5014572;28;45504;-65
2023/03/26 00:31:33;;;;;;;;;0.00;0.00;;;;;12.40;53.20;100250.81;5016176;28;45185;-65
2023/03/26 00:34:01;;;;;;;;;1.50;1.25;;;;;12.32;53.29;100256.28;5015440;28;45306;-65
2023/03/26 00:36:27;;;;;;;;;1.00;1.00;;;;;12.31;53.56;100251.06;5015665;28;45442;-65
2023/03/26 00:38:53;;;;;;;;;1.00;1.00;;;;;12.27;53.63;100247.66;5015626;28;45288;-65
2023/03/26 00:41:24;;;;;;;;;0.50;0.50;;;;;12.23;53.54;100246.00;5016416;28;45400;-65
2023/03/26 00:43:52;;;;;;;;;0.00;0.00;;;;;12.19;53.53;100250.50;5014800;28;45293;-65
2023/03/26 00:46:18;;;;;;;;;1.25;0.50;;;;;12.16;53.27;100233.91;5018624;28;45920;-65
2023/03/26 00:48:45;;;;;;;;;2.25;2.25;;;;;12.10;53.52;100224.44;5006404;28;45786;-65
2023/03/26 00:51:14;;;;;;;;;5.25;1.00;;;;;12.05;53.40;100218.44;5018071;28;45399;-65
2023/03/26 00:53:40;;;;;;;;;1.00;0.50;;;;;11.99;53.96;100206.31;5006411;28;45425;-65
2023/03/26 00:56:06;;;;;;;;;3.50;2.50;;;;;11.95;53.96;100206.38;5007863;28;47185;-65
2023/03/26 00:58:31;;;;;;;;;3.25;1.75;;;;;11.93;53.88;100185.38;5018828;28;45226;-65
2023/03/26 01:00:59;;;;;;;;;1.00;1.00;;;;;11.87;54.04;100185.53;5018963;28;45429;-65
2023/03/26 01:03:29;;;;;;;;;1.75;0.75;;;;;11.80;54.41;100191.91;5018951;28;45258;-65
2023/03/26 01:06:03;;;;;;;;;3.25;2.25;;;;;11.76;54.26;100167.44;5018827;28;45538;-65
2023/03/26 01:08:31;;;;;;;;;4.25;3.00;;;;;11.76;54.26;100166.56;5018743;28;45304;-65
2023/03/26 01:11:04;;;;;;;;;2.50;1.00;;;;;11.68;54.63;100154.50;5018904;28;45385;-65
2023/03/26 01:13:36;;;;;;;;;4.00;2.25;;;;;11.67;54.44;100159.78;5018681;27;45234;-65
2023/03/26 01:16:10;;;;;;;;;2.25;2.00;;;;;11.64;54.45;100142.31;5018750;28;46036;-65
2023/03/26 01:18:39;;;;;;;;;5.25;2.00;;;;;11.60;54.54;100139.84;5018507;28;45379;-65
2023/03/26 01:21:08;;;;;;;;;3.00;3.00;;;;;11.57;54.85;100132.84;5018811;28;45687;-65
2023/03/26 01:23:44;;;;;;;;;1.25;1.25;;;;;11.56;54.72;100131.16;5018791;28;45310;-65
2023/03/26 01:26:30;;;;;;;;;2.00;2.00;;;;;11.52;54.95;100124.22;5018354;28;46297;-65
2023/03/26 01:29:00;;;;;;;;;3.00;2.00;;;;;11.48;55.04;100106.81;5018589;28;45325;-65
2023/03/26 01:31:57;;;;;;;;;3.75;2.75;;;;;11.44;54.96;100113.91;5018838;28;45431;-65
2023/03/26 01:34:36;;;;;;;;;2.25;2.25;;;;;11.42;55.23;100105.22;5018175;28;45360;-65
2023/03/26 01:37:22;;;;;;;;;3.25;0.75;;;;;11.40;55.36;100095.66;5018334;28;46747;-65
2023/03/26 01:39:55;;;;;;;;;2.75;2.00;;;;;11.36;55.38;100087.84;5018629;28;45286;-65
2023/03/26 01:42:32;;;;;;;;;2.25;2.00;;;;;11.31;55.62;100087.09;5018573;28;45255;-66
2023/03/26 01:45:17;;;;;;;;;3.00;1.25;;;;;11.29;55.81;100064.38;5033865;28;45986;-66
2023/03/26 01:47:45;;;;;;;;;3.75;1.00;;;;;11.27;55.79;100047.75;5014042;28;46363;-66
2023/03/26 01:50:11;;;;;;;;;1.75;1.00;;;;;11.18;55.86;100033.97;4999949;28;45256;-66
2023/03/26 01:52:37;;;;;;;;;3.25;1.00;;;;;11.18;56.23;100033.09;5029206;28;45286;-67
2023/03/26 01:55:03;;;;;;;;;1.50;1.50;;;;;11.14;56.09;100016.53;5000143;28;45532;-66
2023/03/26 01:57:37;;;;;;;;;4.00;2.25;;;;;11.14;55.96;100007.81;5016805;28;45311;-66
2023/03/26 02:00:21;;;;;;;;;1.50;1.25;;;;;11.13;56.11;99996.44;5018181;28;45341;-66
2023/03/26 02:03:03;;;;;;;;;3.75;1.50;;;;;11.11;56.36;99986.88;5018345;28;45497;-66
2023/03/26 02:05:32;;;;;;;;;2.00;2.00;;;;;11.09;56.31;99980.78;5018055;28;45236;-66
2023/03/26 02:08:10;;;;;;;;;1.50;1.00;;;;;11.05;56.40;99980.84;5016660;28;47356;-66
2023/03/26 02:10:44;;;;;;;;;2.00;1.00;;;;;11.02;56.51;99959.91;5018129;28;45535;-67
2023/03/26 02:13:11;;;;;;;;;4.75;2.00;;;;;11.01;56.68;99952.94;5016833;28;45336;-66
2023/03/26 02:15:36;;;;;;;;;1.00;1.00;;;;;10.99;56.64;99944.25;5018188;28;45283;-67
2023/03/26 02:18:02;;;;;;;;;2.00;1.00;;;;;10.98;56.87;99941.63;5017805;28;46033;-68
2023/03/26 02:20:29;;;;;;;;;4.00;2.00;;;;;10.96;56.96;99933.81;5016780;28;45377;-68
2023/03/26 02:22:55;;;;;;;;;3.00;3.00;;;;;10.94;56.89;99940.84;5018040;28;45303;-69
2023/03/26 02:25:21;;;;;;;;;3.00;2.50;;;;;10.93;57.20;99938.28;5018085;28;45399;-69
2023/03/26 02:27:48;;;;;;;;;1.00;1.00;;;;;10.90;57.17;99907.69;5017875;28;45654;-69
2023/03/26 02:30:28;;;;;;;;;2.00;2.00;;;;;10.89;57.44;99905.97;5017973;28;45390;-69
2023/03/26 02:32:57;;;;;;;;;1.50;1.00;;;;;10.85;57.30;99883.31;5018096;28;45230;-69
2023/03/26 02:35:23;;;;;;;;;3.75;2.25;;;;;10.85;57.45;99875.44;5017512;28;45330;-68
2023/03/26 02:37:49;;;;;;;;;2.75;1.00;;;;;10.80;57.40;99841.38;5017765;28;46302;-68
2023/03/26 02:40:16;;;;;;;;;3.75;2.00;;;;;10.77;57.06;99823.09;5017712;28;45365;-69
2023/03/26 02:42:41;;;;;;;;;3.25;3.00;;;;;10.76;57.73;99854.69;5018030;28;45342;-69
2023/03/26 02:45:07;;;;;;;;;1.00;1.00;;;;;10.73;57.71;99837.25;5017590;28;45303;-69
2023/03/26 02:47:32;;;;;;;;;2.00;2.00;;;;;10.67;57.75;99838.25;5014772;28;45294;-69
2023/03/26 02:49:58;;;;;;;;;2.75;2.75;;;;;10.66;58.00;99826.03;5030439;28;45224;-68
2023/03/26 02:52:23;;;;;;;;;1.25;1.25;;;;;10.64;58.07;99806.84;5015714;28;45294;-68
2023/03/26 02:54:49;;;;;;;;;1.50;1.50;;;;;10.67;58.13;99803.25;5012396;28;46012;-68
2023/03/26 02:57:14;;;;;;;;;4.00;2.00;;;;;10.62;58.22;99805.16;5017414;28;45882;-68
2023/03/26 02:59:39;;;;;;;;;2.25;2.25;;;;;10.61;58.28;99801.66;5017550;28;45160;-68
2023/03/26 03:02:05;;;;;;;;;1.75;1.75;;;;;10.60;58.31;99805.19;5017658;28;45321;-68
2023/03/26 03:04:30;;;;;;;;;2.25;2.00;;;;;10.59;58.39;99797.34;5017351;28;45197;-68
2023/03/26 03:06:56;;;;;;;;;5.00;2.75;;;;;10.60;58.39;99802.56;5017435;28;45278;-68
2023/03/26 03:09:23;;;;;;;;;5.00;1.00;;;;;10.57;58.78;99781.63;5016810;28;45314;-68
2023/03/26 03:11:50;;;;;;;;;2.50;2.50;;;;;10.63;58.63;99780.59;5017669;28;45291;-68
2023/03/26 03:14:16;;;;;;;;;3.00;1.50;;;;;10.62;58.37;99771.00;5032667;28;45488;-68
2023/03/26 03:16:41;;;;;;;;;1.00;1.00;;;;;10.63;58.95;99770.94;5017373;28;45401;-68
2023/03/26 03:19:06;;;;;;;;;2.00;1.00;;;;;10.65;59.23;99765.63;5016975;28;45287;-68
2023/03/26 03:21:32;;;;;;;;;2.25;2.00;;;;;10.66;59.22;99757.72;5015695;28;45291;-68
2023/03/26 03:23:57;;;;;;;;;4.00;1.00;;;;;10.75;59.02;99766.22;5017213;28;45231;-68
2023/03/26 03:26:26;;;;;;;;;3.75;2.50;;;;;10.77;59.29;99762.66;5016988;28;46021;-68
2023/03/26 03:28:53;;;;;;;;;1.50;1.50;;;;;10.79;59.29;99755.59;5032154;28;45252;-68
2023/03/26 03:31:18;;;;;;;;;1.00;1.00;;;;;10.81;59.24;99753.75;5017216;28;45271;-68
2023/03/26 03:33:45;;;;;;;;;6.00;1.50;;;;;10.82;59.40;99749.38;5016813;28;45330;-68
2023/03/26 03:36:12;;;;;;;;;2.50;2.50;;;;;10.86;59.35;99749.22;5015580;28;46174;-68
2023/03/26 03:38:40;;;;;;;;;2.50;0.25;;;;;10.92;59.49;99755.19;5016876;28;45185;-68
2023/03/26 03:41:06;;;;;;;;;2.50;1.00;;;;;10.91;59.66;99735.09;5015632;28;45283;-67
2023/03/26 03:43:32;;;;;;;;;3.00;2.00;;;;;10.94;59.31;99780.50;5017057;28;45373;-67
2023/03/26 03:45:58;;;;;;;;;4.00;2.75;;;;;10.94;59.80;99740.22;5016508;28;49835;-67
2023/03/26 03:48:24;;;;;;;;;1.50;1.50;;;;;10.97;59.63;99742.75;5020219;27;45412;-67
2023/03/26 03:50:50;;;;;;;;;3.00;1.00;;;;;10.98;59.60;99742.72;5004078;28;45441;-67
2023/03/26 03:53:17;;;;;;;;;5.75;2.00;;;;;11.01;59.45;99734.72;5007431;28;45314;-67
2023/03/26 03:55:51;;;;;;;;;1.00;0.00;;;;;11.04;59.22;99753.06;5019193;28;47421;-67
2023/03/26 03:58:21;;;;;;;;;1.00;0.00;;;;;11.08;59.44;99745.94;5016915;28;45297;-67
2023/03/26 04:00:51;;;;;;;;;0.00;0.00;;;;;11.10;59.28;99762.50;5016830;28;45321;-67
2023/03/26 04:03:18;;;;;;;;;2.00;1.00;;;;;11.06;59.27;99734.59;5015387;28;45277;-67
2023/03/26 04:05:53;;;;;;;;;2.00;2.00;;;;;11.13;59.28;99743.13;5016318;28;46372;-67
2023/03/26 04:08:19;;;;;;;;;1.25;0.00;;;;;11.17;59.08;99736.84;5016509;28;45230;-67
2023/03/26 04:10:45;;;;;;;;;0.25;0.25;;;;;11.17;59.06;99752.63;5016551;28;45246;-67
2023/03/26 04:13:12;;;;;;;;;1.75;1.50;;;;;11.17;58.96;99750.00;5016225;28;45474;-67
2023/03/26 04:15:38;;;;;;;;;1.25;0.00;;;;;11.13;58.94;99732.59;5015270;28;47271;-67
2023/03/26 04:18:09;;;;;;;;;1.00;1.00;;;;;11.20;58.95;99753.41;5016277;28;45253;-67
2023/03/26 04:20:35;;;;;;;;;0.00;0.00;;;;;11.23;58.77;99741.91;5017792;28;45406;-66
2023/03/26 04:23:00;;;;;;;;;1.50;1.00;;;;;11.20;58.40;99728.88;5018082;28;45599;-66
2023/03/26 04:25:29;;;;;;;;;1.00;1.00;;;;;11.21;58.65;99738.50;5018015;28;47152;-66
2023/03/26 04:27:57;;;;;;;;;0.75;0.00;;;;;11.22;58.67;99751.59;5019195;28;45322;-66
2023/03/26 04:30:22;;;;;;;;;1.00;1.00;;;;;11.22;58.67;99754.22;5018149;28;45341;-66
2023/03/26 04:32:48;;;;;;;;;5.50;3.00;;;;;11.21;58.77;99741.13;5019164;28;45290;-66
2023/03/26 04:35:15;;;;;;;;;1.25;1.00;;;;;11.23;58.58;99770.84;5019097;28;47149;-66
2023/03/26 04:37:43;;;;;;;;;3.50;2.00;;;;;11.21;58.66;99762.16;5019095;28;45354;-66
2023/03/26 04:40:18;;;;;;;;;2.25;0.75;;;;;11.22;58.64;99763.88;5019152;28;45347;-66
2023/03/26 04:42:46;;;;;;;;;2.25;0.75;;;;;11.21;58.39;99762.16;5018012;28;45426;-66
2023/03/26 04:45:21;;;;;;;;;2.00;1.00;;;;;11.18;58.56;99763.13;5034475;28;48171;-66
2023/03/26 04:47:47;;;;;;;;;2.50;1.00;;;;;11.22;58.16;99783.13;5012829;28;45477;-66
2023/03/26 04:50:13;;;;;;;;;0.25;0.25;;;;;11.23;58.24;99773.47;5001093;28;45162;-66
2023/03/26 04:52:39;;;;;;;;;2.75;1.00;;;;;11.22;58.29;99779.66;5013642;28;45435;-67
2023/03/26 04:55:15;;;;;;;;;2.50;0.50;;;;;11.19;58.11;99775.38;5014022;28;45237;-66
2023/03/26 04:57:45;;;;;;;;;0.25;0.25;;;;;11.20;58.28;99789.38;5019134;28;45413;-66
2023/03/26 05:00:17;;;;;;;;;1.75;1.00;;;;;11.21;58.18;99764.78;5018967;28;45317;-65
2023/03/26 05:02:43;;;;;;;;;0.00;0.00;;;;;11.20;58.04;99789.38;5019067;28;45338;-66
2023/03/26 05:05:09;;;;;;;;;0.75;0.50;;;;;11.16;58.12;99793.84;5018492;28;46259;-66
2023/03/26 05:07:35;;;;;;;;;1.00;1.00;;;;;11.14;57.76;99786.94;5018958;28;45298;-66
2023/03/26 05:10:02;;;;;;;;;1.00;0.00;;;;;11.17;57.97;99797.34;5018649;28;45318;-66
2023/03/26 05:12:27;;;;;;;;;1.00;0.00;;;;;11.17;57.89;99800.84;5019058;28;45295;-66
2023/03/26 05:14:53;;;;;;;;;0.00;0.00;;;;;11.17;57.86;99807.84;5016765;28;46878;-66
2023/03/26 05:17:20;;;;;;;;;1.00;1.00;;;;;11.17;57.93;99808.72;5019186;28;45218;-66
2023/03/26 05:19:46;;;;;;;;;1.00;1.00;;;;;11.13;57.86;99799.22;5017026;28;45508;-65
2023/03/26 05:22:12;;;;;;;;;0.00;0.00;;;;;11.18;57.88;99805.19;5018883;28;45222;-65
2023/03/26 05:24:37;;;;;;;;;0.00;0.00;;;;;11.13;57.61;99803.59;5018312;28;46142;-66
2023/03/26 05:27:03;;;;;;;;;2.00;0.00;;;;;11.13;57.70;99811.50;5018620;28;49007;-65
2023/03/26 05:29:28;;;;;;;;;0.00;0.00;;;;;11.08;57.78;99805.53;5018586;28;45318;-65
2023/03/26 05:31:53;;;;;;;;;4.00;0.25;;;;;11.10;57.73;99801.94;5018400;28;45317;-66
2023/03/26 05:34:19;;;;;;;;;2.25;0.25;;;;;11.08;57.97;99826.56;5018080;28;45439;-66
2023/03/26 05:36:45;;;;;;;;;0.00;0.00;;;;;11.07;57.67;99828.34;5017401;28;45436;-66
2023/03/26 05:39:11;;;;;;;;;2.25;1.50;;;;;11.05;57.67;99822.25;5018449;28;45374;-66
2023/03/26 05:41:36;;;;;;;;;1.00;1.00;;;;;11.04;57.63;99816.16;5018521;28;45439;-66
2023/03/26 05:44:02;;;;;;;;;0.00;0.00;;;;;11.04;57.58;99833.66;5018094;28;51656;-65
2023/03/26 05:46:27;;;;;;;;;3.00;2.75;;;;;11.01;57.42;99823.25;5017382;28;45275;-65
2023/03/26 05:48:52;;;;;;;;;2.00;1.00;;;;;11.02;57.43;99820.59;5004683;28;45382;-65
2023/03/26 05:51:19;;;;;;;;;1.00;0.25;;;;;10.99;57.37;99827.69;5017150;28;45527;-65
2023/03/26 05:53:45;;;;;;;;;1.00;1.00;;;;;11.00;57.27;99825.00;5004904;28;46484;-65
2023/03/26 05:56:10;;;;;;;;;0.00;0.00;;;;;10.99;57.32;99831.22;5024663;28;45248;-65
2023/03/26 05:58:36;;;;;;;;;0.00;0.00;;;;;10.97;57.37;99814.59;5018220;28;45285;-65
2023/03/26 06:01:15;;;;;;;;;1.50;1.50;;;;;10.97;57.23;99817.25;5017148;28;45516;-65
2023/03/26 06:03:43;;;;;;;;;2.25;0.75;;;;;10.97;57.20;99818.97;5017856;28;45433;-65
2023/03/26 06:06:14;;;;;;;;;3.00;1.50;;;;;10.96;57.10;99805.00;5018080;28;45297;-65
2023/03/26 06:08:51;;;;;;;;;2.75;0.75;;;;;10.93;57.31;99801.59;5018077;28;45383;-65
2023/03/26 06:11:18;;;;;;;;;0.75;0.00;;;;;10.92;57.11;99810.38;5017888;28;45434;-65
2023/03/26 06:13:44;;;;;;;;;2.00;1.00;;;;;10.88;57.30;99825.41;5017972;28;46454;-65
2023/03/26 06:16:12;;;;;;;;;2.00;1.00;;;;;10.92;57.19;99821.78;5017935;28;45420;-66
2023/03/26 06:18:38;;;;;;;;;2.00;1.00;;;;;10.87;57.27;99839.44;5017981;28;45420;-66
2023/03/26 06:21:05;;;;;;;;;4.25;1.75;;;;;10.83;57.16;99822.03;5017987;28;45328;-66
2023/03/26 06:23:31;;;;;;;;;1.25;0.00;;;;;10.81;57.04;99827.34;5017971;28;45413;-66
2023/03/26 06:25:56;;;;;;;;;2.25;1.00;;;;;10.82;56.89;99829.06;5015622;28;45323;-66
2023/03/26 06:28:22;;;;;;;;;1.75;0.00;;;;;10.82;57.04;99834.31;5018075;28;45507;-65
2023/03/26 06:30:47;;;;;;;;;1.00;1.00;;;;;10.84;57.06;99831.66;5018031;28;45398;-65
2023/03/26 06:33:13;;;;;;;;;1.25;1.00;;;;;10.79;57.12;99826.53;5017609;28;46302;-65
2023/03/26 06:35:38;;;;;;;;;1.00;0.25;;;;;10.83;57.12;99835.16;5017755;28;45148;-65
2023/03/26 06:38:04;;;;;;;;;1.25;1.25;;;;;10.79;57.22;99831.81;5018063;28;45200;-65
2023/03/26 06:40:29;;;;;;;;;3.50;1.00;;;;;10.78;57.03;99830.06;5017623;28;45298;-65
2023/03/26 06:42:55;;;;;;;;;0.00;0.00;;;;;10.80;56.88;99832.66;5016892;28;46030;-65
2023/03/26 06:45:21;;;;;;;;;2.00;1.00;;;;;10.80;56.93;99835.28;5016438;28;45373;-65
2023/03/26 06:47:47;;;;;;;;;2.00;0.00;;;;;10.82;57.08;99862.38;5011560;28;46114;-65
2023/03/26 06:50:12;;;;;;;;;1.00;1.00;;;;;10.82;56.98;99857.13;5001197;28;45519;-65
2023/03/26 06:52:38;;;;;;;;;2.00;1.50;;;;;10.82;57.12;99836.94;5013628;28;45411;-65
2023/03/26 06:55:05;;;;;;;;;2.00;0.75;;;;;10.86;56.79;99846.47;4999419;28;45350;-65
2023/03/26 06:57:31;;;;;;;;;1.75;0.75;;;;;10.85;57.01;99847.34;5017841;28;45274;-65
2023/03/26 06:59:56;;;;;;;;;1.75;1.00;;;;;10.85;56.86;99847.34;5017410;28;45334;-65
2023/03/26 07:02:21;;;;;;;;;3.50;0.75;;;;;10.91;56.85;99853.38;5017429;28;50055;-65
2023/03/26 07:04:47;;;;;;;;;1.25;1.00;;;;;10.89;56.91;99856.03;5017175;28;45398;-65
2023/03/26 07:07:13;;;;;;;;;2.75;2.75;;;;;10.86;57.32;99858.75;5017691;28;45300;-65
2023/03/26 07:09:38;;;;;;;;;2.00;1.50;;;;;10.91;57.19;99864.72;5016051;28;45432;-66
2023/03/26 07:12:04;;;;;;;;;1.00;1.00;;;;;10.91;57.03;99870.00;5017248;28;46139;-66
2023/03/26 07:14:31;;;;;;;;;0.50;0.50;;;;;10.93;57.24;99865.56;5015925;28;45514;-65
2023/03/26 07:16:58;;;;;;;;;2.00;1.00;;;;;10.96;57.06;99880.38;5017105;28;45306;-65
2023/03/26 07:19:23;;;;;;;;;2.00;0.75;;;;;10.95;57.04;99874.25;5016815;28;45486;-64
2023/03/26 07:21:49;;;;;;;;;1.00;0.75;;;;;10.97;56.64;99868.94;5017307;28;46444;-65
2023/03/26 07:24:15;;;;;;;;;0.75;0.75;;;;;10.96;56.76;99875.97;5017070;28;45301;-66
2023/03/26 07:26:55;;;;;;;;;3.25;0.75;;;;;10.99;56.93;99882.91;5016381;28;45328;-66
2023/03/26 07:29:35;;;;;;;;;5.50;0.75;;;;;11.01;56.80;99866.19;5016966;28;45340;-66
2023/03/26 07:32:13;;;;;;;;;1.00;0.00;;;;;11.03;56.73;99863.50;5016990;28;46313;-66
2023/03/26 07:34:48;;;;;;;;;4.00;1.50;;;;;11.02;56.93;99869.69;5016921;28;45344;-66
2023/03/26 07:37:23;;;;;;;;;0.00;0.00;;;;;11.03;56.78;99869.63;5017058;28;45389;-66
2023/03/26 07:39:57;;;;;;;;;2.50;2.25;;;;;11.08;56.85;99874.75;5016876;28;45217;-66
2023/03/26 07:42:56;;;;;;;;;2.00;0.00;;;;;11.11;56.54;99868.56;5015620;28;46411;-66
2023/03/26 07:45:40;;;;;;;;;1.75;1.00;;;;;11.13;56.22;99879.84;5029108;28;45725;-66
2023/03/26 07:48:42;;;;;;;;;3.50;1.00;;;;;11.13;56.93;99886.00;5004145;28;45465;-66
2023/03/26 07:51:08;;;;;;;;;1.00;1.00;;;;;11.17;56.38;99882.38;4995139;28;45799;-66
2023/03/26 07:53:34;;;;;;;;;0.75;0.00;;;;;11.16;56.94;99874.53;5004971;28;46318;-64
2023/03/26 07:56:16;;;;;;;;;3.00;1.50;;;;;11.23;56.77;99889.19;5025062;28;46007;-67
2023/03/26 07:59:16;;;;;;;;;4.75;2.75;;;;;11.22;56.76;99882.22;5019734;28;45353;-64
2023/03/26 08:01:53;;;;;;;;;3.00;2.75;;;;;11.19;57.18;99887.56;5019730;28;45165;-64
2023/03/26 08:05:00;;;;;;;;;6.75;1.50;;;;;11.22;56.88;99892.75;5019419;28;46298;-65
2023/03/26 08:07:32;;;;;;;;;1.50;1.00;;;;;11.19;57.25;99893.72;5018813;28;45321;-65
2023/03/26 08:10:10;;;;;;;;;3.50;2.00;;;;;11.20;57.04;99895.41;5019394;28;45556;-66
2023/03/26 08:12:35;;;;;;;;;1.00;1.00;;;;;11.22;57.50;99898.00;5019593;28;45320;-65
2023/03/26 08:15:36;;;;;;;;;3.50;2.00;;;;;11.22;57.13;99890.97;5017874;28;46635;-65
2023/03/26 08:18:26;;;;;;;;;7.75;1.75;;;;;11.26;57.16;99873.34;5019518;28;45290;-65
2023/03/26 08:21:20;;;;;;;;;4.75;2.00;;;;;11.27;56.97;99887.31;5019607;28;45326;-65
2023/03/26 08:24:05;;;;;;;;;2.00;1.00;;;;;11.25;56.66;99894.44;5018936;28;45569;-66
2023/03/26 08:27:00;;;;;;;;;5.25;1.75;;;;;11.25;57.12;99890.00;5019324;28;46122;-65
2023/03/26 08:30:01;;;;;;;;;1.75;1.00;;;;;11.26;57.12;99897.00;5019209;28;45410;-65
2023/03/26 08:32:26;;;;;;;;;4.00;3.00;;;;;11.28;56.83;99891.69;5014360;28;45284;-65
2023/03/26 08:34:52;;;;;;;;;1.25;1.25;;;;;11.27;57.13;99916.25;5018990;28;45632;-65
2023/03/26 08:37:17;;;;;;;;;5.25;2.00;;;;;11.20;57.17;99882.25;5019070;28;45356;-66
2023/03/26 08:39:42;;;;;;;;;2.50;1.00;;;;;11.27;57.00;99896.09;5019044;28;46549;-66
2023/03/26 08:42:26;;;;;;;;;3.25;2.00;;;;;11.29;56.99;99924.97;5019296;28;45582;-65
2023/03/26 08:45:23;;;;;;;;;3.75;2.50;;;;;11.29;56.95;99891.63;5019186;28;45608;-66
2023/03/26 08:48:15;;;;;;;;;0.75;0.75;;;;;11.30;56.95;99909.13;5013896;28;45496;-65
2023/03/26 08:50:52;;;;;;;;;4.00;2.75;;;;;11.31;56.98;99908.25;5005131;28;45254;-66
2023/03/26 08:53:43;;;;;;;;;2.00;0.50;;;;;11.33;57.00;99903.81;5009640;28;45316;-65
2023/03/26 08:56:39;;;;;;;;;1.75;1.75;;;;;11.35;57.11;99915.13;5009905;28;45313;-65
2023/03/26 08:59:29;;;;;;;;;2.50;2.50;;;;;11.39;56.82;99921.16;5017697;28;48387;-65
2023/03/26 09:02:03;;;;;;;;;3.00;0.50;;;;;11.43;56.83;99921.94;5018902;28;45325;-66
2023/03/26 09:04:40;;;;;;;;;1.75;1.75;;;;;11.45;56.70;99920.97;5019010;28;45273;-65
2023/03/26 09:07:20;;;;;;;;;2.25;1.50;;;;;11.46;56.72;99927.97;5018361;28;45674;-66
2023/03/26 09:10:21;;;;;;;;;2.00;1.00;;;;;11.50;56.73;99932.19;5017190;28;47539;-65
2023/03/26 09:13:27;;;;;;;;;1.25;1.00;;;;;11.55;56.60;99929.44;5017547;28;45347;-65
2023/03/26 09:16:04;;;;;;;;;2.00;2.00;;;;;11.58;56.43;99939.84;5034481;28;45332;-65
2023/03/26 09:18:47;;;;;;;;;0.75;0.75;;;;;11.58;56.42;99929.34;5018348;28;45407;-65
2023/03/26 09:22:03;;;;;;;;;2.25;1.00;;;;;11.55;56.45;99932.06;5016997;28;48312;-65
2023/03/26 09:25:04;;;;;;;;;2.00;1.00;;;;;11.57;56.26;99930.22;5018122;28;45300;-64
2023/03/26 09:27:37;;;;;;;;;1.00;1.00;;;;;11.60;56.09;99924.03;4996344;28;45560;-65
2023/03/26 09:30:41;;;;;;;;;1.00;0.75;;;;;11.57;56.11;99935.50;5014828;28;45227;-65
2023/03/26 09:33:37;;;;;;;;;0.00;0.00;;;;;11.59;56.01;99940.75;5016693;28;46487;-65
2023/03/26 09:36:21;;;;;;;;;2.00;1.00;;;;;11.59;56.00;99941.59;5018191;28;45327;-65
2023/03/26 09:38:49;;;;;;;;;1.00;0.00;;;;;11.58;55.90;99939.84;5018134;28;45512;-65
2023/03/26 09:41:20;;;;;;;;;0.00;0.00;;;;;11.60;55.92;99942.47;5018391;28;45390;-66
2023/03/26 09:44:23;;;;;;;;;2.00;1.25;;;;;11.61;56.01;99941.53;5016669;28;47688;-65
2023/03/26 09:46:55;;;;;;;;;2.25;0.00;;;;;11.59;55.95;99936.31;5016784;28;45237;-65
2023/03/26 09:49:45;;;;;;;;;3.00;0.00;;;;;11.61;55.77;99952.94;5000384;28;45287;-65
2023/03/26 09:52:10;;;;;;;;;0.00;0.00;;;;;11.63;56.23;99961.63;5016370;28;45229;-65
2023/03/26 09:54:56;;;;;;;;;0.00;0.00;;;;;11.61;55.72;99968.72;4998149;28;45441;-65
2023/03/26 09:57:44;;;;;;;;;0.00;0.00;;;;;11.62;55.57;99970.47;5005548;28;45207;-65
2023/03/26 10:00:31;;;;;;;;;0.50;0.50;;;;;11.60;55.60;99982.78;5018184;28;45342;-64
2023/03/26 10:03:16;;;;;;;;;0.00;0.00;;;;;11.61;55.61;99995.03;5016712;28;45304;-64
2023/03/26 10:05:48;;;;;;;;;2.00;0.50;;;;;11.58;55.46;99984.59;5013880;28;46370;-65
2023/03/26 10:08:23;;;;;;;;;1.00;0.00;;;;;11.54;55.65;99989.09;5017782;28;45349;-64
2023/03/26 10:10:55;;;;;;;;;1.50;0.00;;;;;11.53;55.61;99984.75;5017946;28;45349;-64
2023/03/26 10:13:59;;;;;;;;;0.00;0.00;;;;;11.57;55.67;99987.28;5017786;28;45326;-64
2023/03/26 10:16:39;;;;;;;;;0.00;0.00;;;;;11.55;55.56;99989.97;5017674;28;46358;-64
2023/03/26 10:19:34;;;;;;;;;0.00;0.00;;;;;11.55;55.55;99993.44;5016734;28;46332;-65
2023/03/26 10:22:09;;;;;;;;;2.00;0.00;;;;;11.58;55.40;99989.00;5017890;28;45454;-65
2023/03/26 10:24:49;;;;;;;;;0.25;0.00;;;;;11.55;55.63;99992.59;5017539;28;45452;-65
2023/03/26 10:27:40;;;;;;;;;0.25;0.25;;;;;11.55;55.57;99987.34;5032244;28;47429;-65
2023/03/26 10:30:33;;;;;;;;;2.00;1.00;;;;;11.53;55.58;99999.66;5017647;28;45370;-65
2023/03/26 10:33:24;;;;;;;;;1.50;1.00;;;;;11.54;55.54;99993.50;5017884;28;45312;-65
2023/03/26 10:36:26;;;;;;;;;0.00;0.00;;;;;11.50;55.50;99997.13;5016192;28;45420;-64
2023/03/26 10:39:08;;;;;;;;;0.00;0.00;;;;;11.50;55.59;100002.41;5017299;28;46008;-64
2023/03/26 10:41:58;;;;;;;;;1.00;1.00;;;;;11.49;55.47;100004.16;5017491;28;45349;-65
2023/03/26 10:44:54;;;;;;;;;0.00;0.00;;;;;11.47;55.55;100003.34;5017660;28;45316;-64
2023/03/26 10:47:22;;;;;;;;;1.00;1.00;;;;;11.46;55.46;100016.53;5015963;28;45201;-65
2023/03/26 10:50:09;;;;;;;;;0.25;0.00;;;;;11.46;55.51;100020.03;5114810;27;45534;-64
2023/03/26 10:53:02;;;;;;;;;1.00;0.50;;;;;11.44;55.78;100016.59;5113924;27;45318;-65
2023/03/26 10:55:36;;;;;;;;;1.25;0.00;;;;;11.45;55.70;100026.19;5114177;27;45440;-65
2023/03/26 10:58:17;;;;;;;;;0.25;0.25;;;;;11.50;55.70;100007.66;5117587;27;45383;-65
2023/03/26 11:00:49;;;;;;;;;1.00;0.00;;;;;11.55;55.69;100017.13;5117453;27;46655;-65
2023/03/26 11:03:34;;;;;;;;;1.50;1.00;;;;;11.60;55.78;100006.47;5115861;27;45985;-65
2023/03/26 11:06:11;;;;;;;;;0.00;0.00;;;;;11.62;55.78;100012.56;5117653;27;45269;-65
2023/03/26 11:09:11;;;;;;;;;1.00;0.00;;;;;11.68;55.52;100009.75;5115669;27;45301;-65
2023/03/26 11:11:56;;;;;;;;;1.00;1.00;;;;;11.76;55.56;100013.88;5109162;27;47067;-66
2023/03/26 11:14:45;;;;;;;;;1.75;0.00;;;;;11.80;55.67;100019.03;5116870;27;45478;-65
2023/03/26 11:17:42;;;;;;;;;0.00;0.00;;;;;11.89;55.60;100019.66;5117080;27;45316;-66
2023/03/26 11:20:33;;;;;;;;;0.00;0.00;;;;;11.91;55.70;100007.28;5090969;27;45216;-66
2023/03/26 11:23:07;;;;;;;;;2.00;1.00;;;;;12.09;55.99;100005.88;5116780;27;45242;-66
2023/03/26 11:25:54;;;;;;;;;1.00;0.00;;;;;12.24;55.88;100000.13;5117187;27;45352;-66
2023/03/26 11:28:55;;;;;;;;;3.00;0.25;;;;;12.40;56.20;100002.25;5117371;27;45169;-65
2023/03/26 11:31:29;;;;;;;;;0.00;0.00;;;;;12.51;56.31;99994.84;5094299;27;45416;-65
2023/03/26 11:33:59;;;;;;;;;0.50;0.50;;;;;12.62;56.34;99995.31;5113217;27;45487;-64
2023/03/26 11:36:30;;;;;;;;;0.75;0.75;;;;;12.78;55.96;99982.47;5117007;27;45257;-66
2023/03/26 11:39:00;;;;;;;;;1.75;1.00;;;;;12.90;56.08;99977.69;5116737;27;45634;-64
2023/03/26 11:41:29;;;;;;;;;1.25;1.00;;;;;13.01;56.27;99979.00;5116857;27;45444;-65
2023/03/26 11:44:01;;;;;;;;;3.75;2.00;;;;;13.20;56.17;99972.22;5116664;27;45286;-65
2023/03/26 11:46:27;;;;;;;;;1.50;1.00;;;;;13.34;56.00;99969.91;5117013;27;45241;-64
2023/03/26 11:49:00;;;;;;;;;0.25;0.25;;;;;13.51;56.20;99971.06;5101959;27;45501;-65
2023/03/26 11:51:31;;;;;;;;;1.00;1.00;;;;;13.69;55.72;99980.06;5109051;27;45227;-64
2023/03/26 11:53:58;;;;;;;;;0.25;0.00;;;;;13.83;55.03;99980.38;5107047;27;45473;-65
2023/03/26 11:56:27;;;;;;;;;1.00;1.00;;;;;13.92;55.03;99964.16;5116627;27;45428;-65
2023/03/26 11:59:00;;;;;;;;;0.00;0.00;;;;;14.02;54.42;99977.00;5116781;27;45211;-66
2023/03/26 12:01:49;;;;;;;;;0.00;0.00;;;;;14.06;54.56;99975.94;5101030;27;45424;-65